South Orleans, Massachusetts
Current Conditions -  °F | °C
As of 1:52 AM on Thursday 23 Oct 2014 (Local Time) from KCQX Reporting Station
Thunderstorm Thunderstorm  
Wind Chill: 59°   Ceiling: 1600
Heat Index: 59°   Visibility: 4mi
Dew Point: 58°   Wind: 9mph
Humidity: 96%   Direction: 80°E
Pressure: 29.64"   Gusts: 20mph
Location:  41.75°N, 69.99°W
Report Text: KCQX 230552Z AUTO 08008G17KT 4SM VCTS RA BR SCT010 BKN016 OVC035 15/14 A2964 RMK AO2 LTG DSNT ALQDS RAE30B45 TSE0453 SLP038 P0008 60015 T01500144 10150 20139 58019
Loading
Personal Weather Stations






























Interactive Weather Map
Tropical Storm Tracking
New forecast layout! Learn more

10-Day Weather Forecast

Advertisements
Track Severe Weather on mobile